sensor_id;sensor_type;location;lat;lon;timestamp;pressure;altitude;pressure_sealevel;temperature;humidity
50702;BME280;36670;50.094;8.496;2022-12-18T00:01:19;101788.38;;;-7.73;75.16
50702;BME280;36670;50.094;8.496;2022-12-18T00:03:45;101785.25;;;-7.79;75.34
50702;BME280;36670;50.094;8.496;2022-12-18T00:06:11;101773.16;;;-7.72;74.73
50702;BME280;36670;50.094;8.496;2022-12-18T00:08:37;101780.63;;;-7.77;75.63
50702;BME280;36670;50.094;8.496;2022-12-18T00:11:07;101783.44;;;-7.93;75.90
50702;BME280;36670;50.094;8.496;2022-12-18T00:13:33;101795.75;;;-7.91;75.47
50702;BME280;36670;50.094;8.496;2022-12-18T00:16:03;101792.72;;;-7.84;75.06
50702;BME280;36670;50.094;8.496;2022-12-18T00:18:28;101763.13;;;-8.12;76.09
50702;BME280;36670;50.094;8.496;2022-12-18T00:20:58;101788.28;;;-7.85;75.32
50702;BME280;36670;50.094;8.496;2022-12-18T00:23:24;101776.44;;;-7.96;75.27
50702;BME280;36670;50.094;8.496;2022-12-18T00:25:49;101781.50;;;-7.91;75.79
50702;BME280;36670;50.094;8.496;2022-12-18T00:28:14;101786.94;;;-7.78;74.96
50702;BME280;36670;50.094;8.496;2022-12-18T00:30:40;101782.84;;;-7.84;75.05
50702;BME280;36670;50.094;8.496;2022-12-18T00:33:05;101776.63;;;-7.84;75.04
50702;BME280;36670;50.094;8.496;2022-12-18T00:35:31;101778.34;;;-7.98;75.13
50702;BME280;36670;50.094;8.496;2022-12-18T00:37:56;101772.72;;;-7.93;75.12
50702;BME280;36670;50.094;8.496;2022-12-18T00:40:22;101772.38;;;-8.03;75.01
50702;BME280;36670;50.094;8.496;2022-12-18T00:42:47;101775.19;;;-7.90;74.98
50702;BME280;36670;50.094;8.496;2022-12-18T00:45:29;101776.81;;;-8.02;75.79
50702;BME280;36670;50.094;8.496;2022-12-18T00:47:55;101788.22;;;-7.98;76.06
50702;BME280;36670;50.094;8.496;2022-12-18T00:50:22;101783.50;;;-8.09;74.84
50702;BME280;36670;50.094;8.496;2022-12-18T00:52:47;101786.38;;;-8.12;75.92
50702;BME280;36670;50.094;8.496;2022-12-18T00:55:13;101788.75;;;-8.08;75.94
50702;BME280;36670;50.094;8.496;2022-12-18T00:57:39;101789.06;;;-8.12;74.88
50702;BME280;36670;50.094;8.496;2022-12-18T01:00:05;101798.03;;;-7.99;75.85
50702;BME280;36670;50.094;8.496;2022-12-18T01:02:31;101790.13;;;-7.86;74.36
50702;BME280;36670;50.094;8.496;2022-12-18T01:04:56;101803.03;;;-7.78;74.47
50702;BME280;36670;50.094;8.496;2022-12-18T01:07:21;101803.91;;;-7.92;75.16
50702;BME280;36670;50.094;8.496;2022-12-18T01:09:46;101798.56;;;-7.78;73.93
50702;BME280;36670;50.094;8.496;2022-12-18T01:12:12;101806.31;;;-7.87;74.96
50702;BME280;36670;50.094;8.496;2022-12-18T01:14:37;101792.34;;;-8.07;75.18
50702;BME280;36670;50.094;8.496;2022-12-18T01:17:03;101795.00;;;-7.93;75.32
50702;BME280;36670;50.094;8.496;2022-12-18T01:19:28;101794.91;;;-8.06;75.00
50702;BME280;36670;50.094;8.496;2022-12-18T01:21:54;101803.06;;;-8.07;75.36
50702;BME280;36670;50.094;8.496;2022-12-18T01:24:19;101810.13;;;-7.92;75.55
50702;BME280;36670;50.094;8.496;2022-12-18T01:26:45;101805.34;;;-7.86;74.96
50702;BME280;36670;50.094;8.496;2022-12-18T01:29:10;101805.34;;;-8.01;74.06
50702;BME280;36670;50.094;8.496;2022-12-18T01:31:35;101815.22;;;-7.87;74.95
50702;BME280;36670;50.094;8.496;2022-12-18T01:34:01;101813.88;;;-7.94;74.73
50702;BME280;36670;50.094;8.496;2022-12-18T01:36:29;101812.31;;;-7.84;74.27
50702;BME280;36670;50.094;8.496;2022-12-18T01:38:55;101827.53;;;-7.99;74.72
50702;BME280;36670;50.094;8.496;2022-12-18T01:41:23;101833.38;;;-7.92;74.10
50702;BME280;36670;50.094;8.496;2022-12-18T01:43:51;101834.38;;;-7.93;74.75
50702;BME280;36670;50.094;8.496;2022-12-18T01:46:19;101824.75;;;-8.12;74.28
50702;BME280;36670;50.094;8.496;2022-12-18T01:48:47;101820.63;;;-8.17;74.78
50702;BME280;36670;50.094;8.496;2022-12-18T01:51:13;101819.31;;;-7.96;74.32
50702;BME280;36670;50.094;8.496;2022-12-18T01:53:40;101826.63;;;-7.83;74.29
50702;BME280;36670;50.094;8.496;2022-12-18T01:56:06;101823.25;;;-7.87;73.54
50702;BME280;36670;50.094;8.496;2022-12-18T01:58:41;101821.91;;;-7.94;73.70
50702;BME280;36670;50.094;8.496;2022-12-18T02:01:10;101815.09;;;-7.85;74.57
50702;BME280;36670;50.094;8.496;2022-12-18T02:03:36;101813.47;;;-7.88;73.23
50702;BME280;36670;50.094;8.496;2022-12-18T02:06:05;101809.56;;;-7.97;73.66
50702;BME280;36670;50.094;8.496;2022-12-18T02:08:48;101806.38;;;-7.89;73.85
50702;BME280;36670;50.094;8.496;2022-12-18T02:11:30;101807.44;;;-8.06;73.69
50702;BME280;36670;50.094;8.496;2022-12-18T02:19:27;101812.38;;;-8.43;74.18
50702;BME280;36670;50.094;8.496;2022-12-18T02:24:59;101797.25;;;-8.44;75.21
50702;BME280;36670;50.094;8.496;2022-12-18T02:27:30;101797.72;;;-8.52;75.03
50702;BME280;36670;50.094;8.496;2022-12-18T02:29:59;101799.16;;;-8.46;74.97
50702;BME280;36670;50.094;8.496;2022-12-18T02:32:30;101795.41;;;-8.44;74.79
50702;BME280;36670;50.094;8.496;2022-12-18T02:34:57;101787.59;;;-8.32;73.68
50702;BME280;36670;50.094;8.496;2022-12-18T02:37:26;101797.25;;;-8.30;74.40
50702;BME280;36670;50.094;8.496;2022-12-18T02:39:54;101789.97;;;-8.42;74.06
50702;BME280;36670;50.094;8.496;2022-12-18T02:42:21;101799.91;;;-8.44;74.02
50702;BME280;36670;50.094;8.496;2022-12-18T02:44:50;101796.97;;;-8.54;74.33
50702;BME280;36670;50.094;8.496;2022-12-18T02:47:18;101792.47;;;-8.53;74.07
50702;BME280;36670;50.094;8.496;2022-12-18T02:52:39;101799.03;;;-8.59;73.92
50702;BME280;36670;50.094;8.496;2022-12-18T02:55:23;101791.38;;;-8.65;74.08
50702;BME280;36670;50.094;8.496;2022-12-18T02:58:04;101790.41;;;-8.64;74.35
50702;BME280;36670;50.094;8.496;2022-12-18T03:00:39;101786.13;;;-8.67;74.13
50702;BME280;36670;50.094;8.496;2022-12-18T03:03:11;101799.53;;;-8.67;74.02
50702;BME280;36670;50.094;8.496;2022-12-18T03:05:44;101813.53;;;-8.78;74.43
50702;BME280;36670;50.094;8.496;2022-12-18T03:08:21;101816.72;;;-8.87;74.05
50702;BME280;36670;50.094;8.496;2022-12-18T03:10:57;101809.03;;;-8.77;74.89
50702;BME280;36670;50.094;8.496;2022-12-18T03:13:28;101803.84;;;-8.80;75.00
50702;BME280;36670;50.094;8.496;2022-12-18T03:15:57;101813.16;;;-8.71;74.08
50702;BME280;36670;50.094;8.496;2022-12-18T03:18:34;101808.94;;;-8.76;74.22
50702;BME280;36670;50.094;8.496;2022-12-18T03:21:05;101805.22;;;-8.73;74.04
50702;BME280;36670;50.094;8.496;2022-12-18T03:23:35;101812.03;;;-8.67;74.50
50702;BME280;36670;50.094;8.496;2022-12-18T03:26:05;101806.88;;;-8.56;74.78
50702;BME280;36670;50.094;8.496;2022-12-18T03:28:36;101806.78;;;-8.54;74.46
50702;BME280;36670;50.094;8.496;2022-12-18T03:31:03;101802.31;;;-8.54;74.20
50702;BME280;36670;50.094;8.496;2022-12-18T03:33:54;101803.03;;;-8.66;74.41
50702;BME280;36670;50.094;8.496;2022-12-18T03:36:20;101793.56;;;-8.72;74.39
50702;BME280;36670;50.094;8.496;2022-12-18T03:38:45;101799.84;;;-8.57;74.25
50702;BME280;36670;50.094;8.496;2022-12-18T03:44:26;101794.19;;;-8.52;73.88
50702;BME280;36670;50.094;8.496;2022-12-18T03:47:17;101790.50;;;-8.66;74.41
50702;BME280;36670;50.094;8.496;2022-12-18T03:49:50;101781.94;;;-8.56;74.02
50702;BME280;36670;50.094;8.496;2022-12-18T03:52:28;101782.53;;;-8.51;73.93
50702;BME280;36670;50.094;8.496;2022-12-18T03:54:56;101780.19;;;-8.58;74.53
50702;BME280;36670;50.094;8.496;2022-12-18T03:57:26;101789.78;;;-8.53;73.81
50702;BME280;36670;50.094;8.496;2022-12-18T04:00:00;101785.06;;;-8.64;73.71
50702;BME280;36670;50.094;8.496;2022-12-18T04:02:27;101795.44;;;-8.74;74.28
50702;BME280;36670;50.094;8.496;2022-12-18T04:04:56;101795.19;;;-8.69;74.76
50702;BME280;36670;50.094;8.496;2022-12-18T04:07:23;101800.81;;;-8.74;74.90
50702;BME280;36670;50.094;8.496;2022-12-18T04:09:50;101775.91;;;-8.90;74.99
50702;BME280;36670;50.094;8.496;2022-12-18T04:12:17;101786.28;;;-8.70;74.64
50702;BME280;36670;50.094;8.496;2022-12-18T04:14:43;101781.34;;;-8.62;73.77
50702;BME280;36670;50.094;8.496;2022-12-18T04:17:08;101784.22;;;-8.50;74.16
50702;BME280;36670;50.094;8.496;2022-12-18T04:19:33;101786.53;;;-8.59;73.67
50702;BME280;36670;50.094;8.496;2022-12-18T04:21:59;101788.72;;;-8.65;74.63
50702;BME280;36670;50.094;8.496;2022-12-18T04:24:24;101786.03;;;-8.65;74.41
50702;BME280;36670;50.094;8.496;2022-12-18T04:26:49;101780.41;;;-8.61;74.18
50702;BME280;36670;50.094;8.496;2022-12-18T04:29:15;101774.75;;;-8.56;74.92
50702;BME280;36670;50.094;8.496;2022-12-18T04:31:40;101781.16;;;-8.44;74.76
50702;BME280;36670;50.094;8.496;2022-12-18T04:34:06;101778.50;;;-8.30;74.00
50702;BME280;36670;50.094;8.496;2022-12-18T04:36:31;101782.16;;;-8.45;73.72
50702;BME280;36670;50.094;8.496;2022-12-18T04:38:56;101781.47;;;-8.20;73.75
50702;BME280;36670;50.094;8.496;2022-12-18T04:41:21;101776.81;;;-8.16;74.12
50702;BME280;36670;50.094;8.496;2022-12-18T04:43:47;101774.88;;;-8.14;73.96
50702;BME280;36670;50.094;8.496;2022-12-18T04:46:12;101771.34;;;-8.29;73.87
50702;BME280;36670;50.094;8.496;2022-12-18T04:48:38;101775.25;;;-8.35;73.29
50702;BME280;36670;50.094;8.496;2022-12-18T04:51:04;101773.34;;;-8.33;73.83
50702;BME280;36670;50.094;8.496;2022-12-18T04:53:30;101788.06;;;-8.40;73.85
50702;BME280;36670;50.094;8.496;2022-12-18T04:56:07;101781.47;;;-8.34;73.52
50702;BME280;36670;50.094;8.496;2022-12-18T04:58:32;101776.22;;;-8.36;74.52
50702;BME280;36670;50.094;8.496;2022-12-18T05:00:58;101774.38;;;-8.35;73.40
50702;BME280;36670;50.094;8.496;2022-12-18T05:03:23;101776.03;;;-8.33;74.15
50702;BME280;36670;50.094;8.496;2022-12-18T05:05:52;101769.22;;;-8.38;73.98
50702;BME280;36670;50.094;8.496;2022-12-18T05:08:18;101775.75;;;-8.14;73.39
50702;BME280;36670;50.094;8.496;2022-12-18T05:10:43;101783.69;;;-8.12;73.95
50702;BME280;36670;50.094;8.496;2022-12-18T05:13:08;101790.09;;;-8.15;73.48
50702;BME280;36670;50.094;8.496;2022-12-18T05:15:34;101786.66;;;-8.17;73.74
50702;BME280;36670;50.094;8.496;2022-12-18T05:18:00;101789.63;;;-8.21;73.42
50702;BME280;36670;50.094;8.496;2022-12-18T05:20:26;101788.28;;;-8.29;74.32
50702;BME280;36670;50.094;8.496;2022-12-18T05:22:52;101795.47;;;-8.29;73.53
50702;BME280;36670;50.094;8.496;2022-12-18T05:25:18;101793.81;;;-8.32;73.59
50702;BME280;36670;50.094;8.496;2022-12-18T05:27:44;101794.22;;;-8.24;72.97
50702;BME280;36670;50.094;8.496;2022-12-18T05:30:11;101763.97;;;-8.40;73.51
50702;BME280;36670;50.094;8.496;2022-12-18T05:32:36;101788.81;;;-8.38;74.17
50702;BME280;36670;50.094;8.496;2022-12-18T05:35:02;101787.59;;;-8.32;73.65
50702;BME280;36670;50.094;8.496;2022-12-18T05:37:28;101781.47;;;-8.20;73.24
50702;BME280;36670;50.094;8.496;2022-12-18T05:39:53;101789.31;;;-8.17;73.53
50702;BME280;36670;50.094;8.496;2022-12-18T05:42:18;101785.69;;;-8.16;73.12
50702;BME280;36670;50.094;8.496;2022-12-18T05:44:44;101782.25;;;-8.18;74.35
50702;BME280;36670;50.094;8.496;2022-12-18T05:47:09;101782.47;;;-8.21;74.22
50702;BME280;36670;50.094;8.496;2022-12-18T05:49:34;101780.91;;;-8.25;74.30
50702;BME280;36670;50.094;8.496;2022-12-18T05:52:00;101778.16;;;-8.24;73.25
50702;BME280;36670;50.094;8.496;2022-12-18T05:54:28;101760.13;;;-8.36;73.86
50702;BME280;36670;50.094;8.496;2022-12-18T05:56:54;101767.53;;;-8.25;74.05
50702;BME280;36670;50.094;8.496;2022-12-18T05:59:19;101781.69;;;-8.23;74.35
50702;BME280;36670;50.094;8.496;2022-12-18T06:01:45;101791.84;;;-8.14;74.24
50702;BME280;36670;50.094;8.496;2022-12-18T06:04:10;101783.38;;;-8.36;74.46
50702;BME280;36670;50.094;8.496;2022-12-18T06:06:35;101784.25;;;-8.36;73.59
50702;BME280;36670;50.094;8.496;2022-12-18T06:09:02;101789.81;;;-8.39;74.06
50702;BME280;36670;50.094;8.496;2022-12-18T06:11:33;101795.22;;;-8.41;74.56
50702;BME280;36670;50.094;8.496;2022-12-18T06:13:58;101789.41;;;-8.33;73.65
50702;BME280;36670;50.094;8.496;2022-12-18T06:16:24;101795.56;;;-8.16;73.33
50702;BME280;36670;50.094;8.496;2022-12-18T06:18:49;101798.59;;;-8.37;73.61
50702;BME280;36670;50.094;8.496;2022-12-18T06:21:14;101794.09;;;-8.36;74.65
50702;BME280;36670;50.094;8.496;2022-12-18T06:23:39;101804.44;;;-8.30;73.89
50702;BME280;36670;50.094;8.496;2022-12-18T06:26:07;101802.66;;;-8.15;74.00
50702;BME280;36670;50.094;8.496;2022-12-18T06:28:32;101816.59;;;-8.25;73.48
50702;BME280;36670;50.094;8.496;2022-12-18T06:30:58;101808.94;;;-8.31;73.67
50702;BME280;36670;50.094;8.496;2022-12-18T06:33:26;101811.16;;;-8.23;73.48
50702;BME280;36670;50.094;8.496;2022-12-18T06:35:52;101816.13;;;-8.17;73.97
50702;BME280;36670;50.094;8.496;2022-12-18T06:38:17;101819.28;;;-8.10;73.18
50702;BME280;36670;50.094;8.496;2022-12-18T06:40:42;101816.25;;;-8.04;73.30
50702;BME280;36670;50.094;8.496;2022-12-18T06:43:08;101821.38;;;-8.30;73.23
50702;BME280;36670;50.094;8.496;2022-12-18T06:45:33;101823.94;;;-8.28;73.29
50702;BME280;36670;50.094;8.496;2022-12-18T06:47:58;101828.38;;;-8.27;74.35
50702;BME280;36670;50.094;8.496;2022-12-18T06:50:23;101827.31;;;-8.39;74.20
50702;BME280;36670;50.094;8.496;2022-12-18T06:52:49;101828.06;;;-8.23;74.39
50702;BME280;36670;50.094;8.496;2022-12-18T06:55:14;101824.63;;;-8.39;73.54
50702;BME280;36670;50.094;8.496;2022-12-18T06:57:39;101834.97;;;-8.33;73.41
50702;BME280;36670;50.094;8.496;2022-12-18T07:00:06;101828.47;;;-8.14;73.72
50702;BME280;36670;50.094;8.496;2022-12-18T07:02:31;101826.47;;;-7.96;73.46
50702;BME280;36670;50.094;8.496;2022-12-18T07:04:57;101833.69;;;-7.68;73.70
50702;BME280;36670;50.094;8.496;2022-12-18T07:07:22;101835.22;;;-7.64;73.60
50702;BME280;36670;50.094;8.496;2022-12-18T07:09:49;101826.88;;;-7.59;73.30
50702;BME280;36670;50.094;8.496;2022-12-18T07:12:15;101833.59;;;-7.66;72.90
50702;BME280;36670;50.094;8.496;2022-12-18T07:14:40;101832.88;;;-8.13;73.05
50702;BME280;36670;50.094;8.496;2022-12-18T07:17:05;101831.69;;;-7.93;73.61
50702;BME280;36670;50.094;8.496;2022-12-18T07:19:30;101835.47;;;-8.12;73.02
50702;BME280;36670;50.094;8.496;2022-12-18T07:21:56;101838.47;;;-7.87;73.19
50702;BME280;36670;50.094;8.496;2022-12-18T07:24:21;101838.28;;;-7.84;72.65
50702;BME280;36670;50.094;8.496;2022-12-18T07:26:46;101828.59;;;-7.87;72.55
50702;BME280;36670;50.094;8.496;2022-12-18T07:29:12;101822.38;;;-8.02;72.84
50702;BME280;36670;50.094;8.496;2022-12-18T07:31:37;101824.59;;;-7.80;73.49
50702;BME280;36670;50.094;8.496;2022-12-18T07:34:02;101820.66;;;-7.74;73.27
50702;BME280;36670;50.094;8.496;2022-12-18T07:36:28;101833.41;;;-7.78;72.74
50702;BME280;36670;50.094;8.496;2022-12-18T07:38:53;101816.34;;;-7.91;72.39
50702;BME280;36670;50.094;8.496;2022-12-18T07:41:19;101834.25;;;-7.92;72.50
50702;BME280;36670;50.094;8.496;2022-12-18T07:43:45;101839.13;;;-7.84;73.26
50702;BME280;36670;50.094;8.496;2022-12-18T07:46:11;101838.19;;;-7.68;73.02
50702;BME280;36670;50.094;8.496;2022-12-18T07:48:39;101828.78;;;-7.61;73.46
50702;BME280;36670;50.094;8.496;2022-12-18T07:51:05;101822.97;;;-7.68;72.63
50702;BME280;36670;50.094;8.496;2022-12-18T07:53:32;101828.78;;;-7.61;72.62
50702;BME280;36670;50.094;8.496;2022-12-18T07:55:59;101834.72;;;-7.56;72.68
50702;BME280;36670;50.094;8.496;2022-12-18T07:58:25;101831.88;;;-7.82;72.48
50702;BME280;36670;50.094;8.496;2022-12-18T08:00:51;101832.06;;;-7.70;72.33
50702;BME280;36670;50.094;8.496;2022-12-18T08:03:17;101836.09;;;-7.63;73.47
50702;BME280;36670;50.094;8.496;2022-12-18T08:05:43;101851.19;;;-7.77;73.00
50702;BME280;36670;50.094;8.496;2022-12-18T08:08:08;101839.22;;;-7.71;72.82
50702;BME280;36670;50.094;8.496;2022-12-18T08:10:33;101851.00;;;-7.45;72.79
50702;BME280;36670;50.094;8.496;2022-12-18T08:12:59;101850.59;;;-7.24;73.61
50702;BME280;36670;50.094;8.496;2022-12-18T08:15:24;101837.00;;;-6.94;72.94
50702;BME280;36670;50.094;8.496;2022-12-18T08:17:49;101840.41;;;-7.05;72.56
50702;BME280;36670;50.094;8.496;2022-12-18T08:20:15;101841.69;;;-6.83;72.27
50702;BME280;36670;50.094;8.496;2022-12-18T08:22:41;101845.16;;;-6.68;72.57
50702;BME280;36670;50.094;8.496;2022-12-18T08:25:07;101839.19;;;-6.46;71.88
50702;BME280;36670;50.094;8.496;2022-12-18T08:27:32;101846.22;;;-6.30;72.24
50702;BME280;36670;50.094;8.496;2022-12-18T08:29:58;101846.94;;;-6.01;71.59
50702;BME280;36670;50.094;8.496;2022-12-18T08:32:24;101839.25;;;-6.20;71.93
50702;BME280;36670;50.094;8.496;2022-12-18T08:34:50;101838.09;;;-6.03;71.10
50702;BME280;36670;50.094;8.496;2022-12-18T08:37:15;101835.19;;;-6.13;71.59
50702;BME280;36670;50.094;8.496;2022-12-18T08:39:41;101846.06;;;-6.02;71.17
50702;BME280;36670;50.094;8.496;2022-12-18T08:42:06;101836.38;;;-6.04;70.15
50702;BME280;36670;50.094;8.496;2022-12-18T08:44:50;101822.81;;;-6.15;71.42
50702;BME280;36670;50.094;8.496;2022-12-18T08:47:15;101822.91;;;-6.30;71.29
50702;BME280;36670;50.094;8.496;2022-12-18T08:49:40;101819.34;;;-6.30;70.34
50702;BME280;36670;50.094;8.496;2022-12-18T08:52:05;101811.09;;;-6.27;70.98
50702;BME280;36670;50.094;8.496;2022-12-18T08:54:31;101806.34;;;-6.24;71.54
50702;BME280;36670;50.094;8.496;2022-12-18T08:56:56;101803.47;;;-6.21;72.36
50702;BME280;36670;50.094;8.496;2022-12-18T08:59:21;101803.91;;;-6.01;71.33
50702;BME280;36670;50.094;8.496;2022-12-18T09:01:48;101808.81;;;-5.95;71.31
50702;BME280;36670;50.094;8.496;2022-12-18T09:04:13;101813.22;;;-5.94;71.86
50702;BME280;36670;50.094;8.496;2022-12-18T09:06:41;101810.97;;;-5.74;72.64
50702;BME280;36670;50.094;8.496;2022-12-18T09:09:07;101818.03;;;-5.60;72.38
50702;BME280;36670;50.094;8.496;2022-12-18T09:11:32;101820.16;;;-5.53;73.12
50702;BME280;36670;50.094;8.496;2022-12-18T09:13:59;101825.63;;;-5.28;73.02
50702;BME280;36670;50.094;8.496;2022-12-18T09:16:27;101835.38;;;-5.15;71.77
50702;BME280;36670;50.094;8.496;2022-12-18T09:18:54;101837.19;;;-5.02;72.95
50702;BME280;36670;50.094;8.496;2022-12-18T09:21:24;101842.00;;;-4.94;72.43
50702;BME280;36670;50.094;8.496;2022-12-18T09:23:51;101837.59;;;-4.71;71.78
50702;BME280;36670;50.094;8.496;2022-12-18T09:26:16;101834.22;;;-4.62;72.46
50702;BME280;36670;50.094;8.496;2022-12-18T09:28:42;101844.75;;;-4.59;72.20
50702;BME280;36670;50.094;8.496;2022-12-18T09:31:08;101841.22;;;-4.48;71.78
50702;BME280;36670;50.094;8.496;2022-12-18T09:33:37;101843.13;;;-4.37;71.65
50702;BME280;36670;50.094;8.496;2022-12-18T09:36:05;101838.22;;;-4.43;72.57
50702;BME280;36670;50.094;8.496;2022-12-18T09:38:30;101839.19;;;-4.44;71.41
50702;BME280;36670;50.094;8.496;2022-12-18T09:41:00;101841.75;;;-4.43;72.40
50702;BME280;36670;50.094;8.496;2022-12-18T09:43:43;101844.78;;;-4.12;71.39
50702;BME280;36670;50.094;8.496;2022-12-18T09:46:19;101842.31;;;-4.26;71.59
50702;BME280;36670;50.094;8.496;2022-12-18T09:48:52;101852.19;;;-4.03;71.86
50702;BME280;36670;50.094;8.496;2022-12-18T09:51:30;101848.91;;;-3.95;70.32
50702;BME280;36670;50.094;8.496;2022-12-18T09:54:12;101836.84;;;-4.02;71.37
50702;BME280;36670;50.094;8.496;2022-12-18T09:56:42;101839.53;;;-4.02;70.54
50702;BME280;36670;50.094;8.496;2022-12-18T10:02:19;101844.56;;;-4.09;69.58
50702;BME280;36670;50.094;8.496;2022-12-18T10:04:57;101848.00;;;-4.07;70.20
50702;BME280;36670;50.094;8.496;2022-12-18T10:07:37;101847.97;;;-4.18;69.81
50702;BME280;36670;50.094;8.496;2022-12-18T10:10:13;101855.25;;;-3.96;69.71
50702;BME280;36670;50.094;8.496;2022-12-18T10:12:57;101846.66;;;-4.01;69.63
50702;BME280;36670;50.094;8.496;2022-12-18T10:15:38;101846.81;;;-3.91;70.23
50702;BME280;36670;50.094;8.496;2022-12-18T10:20:53;101817.63;;;-3.64;70.01
50702;BME280;36670;50.094;8.496;2022-12-18T10:26:08;101820.00;;;-3.48;70.64
50702;BME280;36670;50.094;8.496;2022-12-18T10:28:36;101812.59;;;-3.34;69.67
50702;BME280;36670;50.094;8.496;2022-12-18T10:31:05;101815.75;;;-3.18;69.62
50702;BME280;36670;50.094;8.496;2022-12-18T10:33:31;101813.41;;;-3.00;69.65
50702;BME280;36670;50.094;8.496;2022-12-18T10:35:57;101814.78;;;-3.17;67.28
50702;BME280;36670;50.094;8.496;2022-12-18T10:38:28;101828.06;;;-3.25;68.97
50702;BME280;36670;50.094;8.496;2022-12-18T10:41:23;101831.75;;;-3.37;68.24
50702;BME280;36670;50.094;8.496;2022-12-18T10:44:19;101827.19;;;-3.14;69.32
50702;BME280;36670;50.094;8.496;2022-12-18T10:46:54;101821.81;;;-3.26;67.33
50702;BME280;36670;50.094;8.496;2022-12-18T10:49:26;101822.66;;;-3.25;67.91
50702;BME280;36670;50.094;8.496;2022-12-18T10:52:11;101823.25;;;-3.10;69.29
50702;BME280;36670;50.094;8.496;2022-12-18T10:54:37;101813.69;;;-3.14;68.90
50702;BME280;36670;50.094;8.496;2022-12-18T10:57:33;101808.16;;;-3.13;70.01
50702;BME280;36670;50.094;8.496;2022-12-18T11:00:03;101808.34;;;-2.93;69.32
50702;BME280;36670;50.094;8.496;2022-12-18T11:02:38;101825.28;;;-2.80;69.39
50702;BME280;36670;50.094;8.496;2022-12-18T11:05:24;101812.47;;;-2.78;67.82
50702;BME280;36670;50.094;8.496;2022-12-18T11:07:50;101818.09;;;-3.02;68.13
50702;BME280;36670;50.094;8.496;2022-12-18T11:10:20;101814.56;;;-3.25;68.46
50702;BME280;36670;50.094;8.496;2022-12-18T11:12:46;101822.66;;;-3.25;68.18
50702;BME280;36670;50.094;8.496;2022-12-18T11:15:27;101815.75;;;-3.18;69.36
50702;BME280;36670;50.094;8.496;2022-12-18T11:17:54;101817.72;;;-3.09;69.87
50702;BME280;36670;50.094;8.496;2022-12-18T11:22:56;101819.47;;;-3.41;67.44
50702;BME280;36670;50.094;8.496;2022-12-18T11:25:22;101816.53;;;-3.72;69.15
50702;BME280;36670;50.094;8.496;2022-12-18T11:27:56;101818.13;;;-3.81;68.70
50702;BME280;36670;50.094;8.496;2022-12-18T11:30:26;101822.31;;;-3.66;69.62
50702;BME280;36670;50.094;8.496;2022-12-18T11:33:04;101814.09;;;-3.64;68.82
50702;BME280;36670;50.094;8.496;2022-12-18T11:35:44;101811.13;;;-3.61;69.36
50702;BME280;36670;50.094;8.496;2022-12-18T11:38:26;101803.53;;;-3.56;70.62
50702;BME280;36670;50.094;8.496;2022-12-18T11:40:56;101802.00;;;-3.15;70.51
50702;BME280;36670;50.094;8.496;2022-12-18T11:43:29;101802.09;;;-2.94;69.71
50702;BME280;36670;50.094;8.496;2022-12-18T11:46:01;101799.09;;;-2.79;68.82
50702;BME280;36670;50.094;8.496;2022-12-18T11:48:44;101803.94;;;-2.94;66.82
50702;BME280;36670;50.094;8.496;2022-12-18T11:51:25;101800.03;;;-3.01;68.52
50702;BME280;36670;50.094;8.496;2022-12-18T11:53:53;101795.59;;;-3.02;67.67
50702;BME280;36670;50.094;8.496;2022-12-18T11:56:31;101800.78;;;-3.22;67.29
50702;BME280;36670;50.094;8.496;2022-12-18T11:59:01;101800.44;;;-3.29;67.80
50702;BME280;36670;50.094;8.496;2022-12-18T12:01:48;101800.53;;;-3.19;67.99
50702;BME280;36670;50.094;8.496;2022-12-18T12:04:32;101802.28;;;-3.29;67.51
50702;BME280;36670;50.094;8.496;2022-12-18T12:09:35;101803.72;;;-3.14;68.97
50702;BME280;36670;50.094;8.496;2022-12-18T12:15:06;101789.91;;;-2.88;68.38
50702;BME280;36670;50.094;8.496;2022-12-18T12:17:47;101786.28;;;-2.66;67.49
50702;BME280;36670;50.094;8.496;2022-12-18T12:20:39;101792.72;;;-2.89;68.40
50702;BME280;36670;50.094;8.496;2022-12-18T12:23:15;101787.56;;;-2.93;68.51
50702;BME280;36670;50.094;8.496;2022-12-18T12:25:51;101795.63;;;-2.70;67.98
50702;BME280;36670;50.094;8.496;2022-12-18T12:28:34;101781.81;;;-2.88;66.74
50702;BME280;36670;50.094;8.496;2022-12-18T12:34:04;101775.53;;;-3.32;68.08
50702;BME280;36670;50.094;8.496;2022-12-18T12:39:23;101775.66;;;-3.34;68.95
50702;BME280;36670;50.094;8.496;2022-12-18T12:41:53;101775.72;;;-3.13;69.43
50702;BME280;36670;50.094;8.496;2022-12-18T12:44:54;101766.75;;;-2.69;69.56
50702;BME280;36670;50.094;8.496;2022-12-18T12:47:41;101767.59;;;-2.48;67.36
50702;BME280;36670;50.094;8.496;2022-12-18T12:50:13;101759.69;;;-2.61;67.92
50702;BME280;36670;50.094;8.496;2022-12-18T12:52:46;101749.06;;;-2.52;68.34
50702;BME280;36670;50.094;8.496;2022-12-18T12:55:24;101753.84;;;-2.24;66.82
50702;BME280;36670;50.094;8.496;2022-12-18T13:00:25;101762.03;;;-2.35;67.17
50702;BME280;36670;50.094;8.496;2022-12-18T13:03:05;101762.53;;;-2.41;67.18
50702;BME280;36670;50.094;8.496;2022-12-18T13:06:45;101755.78;;;-2.26;68.02
50702;BME280;36670;50.094;8.496;2022-12-18T13:08:56;101752.22;;;-2.05;66.62
50702;BME280;36670;50.094;8.496;2022-12-18T13:11:36;101743.00;;;-2.24;66.87
50702;BME280;36670;50.094;8.496;2022-12-18T13:17:24;101738.91;;;-2.18;66.68
50702;BME280;36670;50.094;8.496;2022-12-18T13:20:06;101738.78;;;-2.37;67.47
50702;BME280;36670;50.094;8.496;2022-12-18T13:22:43;101740.16;;;-2.22;67.98
50702;BME280;36670;50.094;8.496;2022-12-18T13:25:29;101727.16;;;-2.07;66.73
50702;BME280;36670;50.094;8.496;2022-12-18T13:35:40;101724.25;;;-2.79;68.27
50702;BME280;36670;50.094;8.496;2022-12-18T13:43:54;101719.53;;;-2.86;68.50
50702;BME280;36670;50.094;8.496;2022-12-18T13:48:52;101724.00;;;-2.76;67.66
50702;BME280;36670;50.094;8.496;2022-12-18T13:51:20;101714.59;;;-2.60;67.33
50702;BME280;36670;50.094;8.496;2022-12-18T13:53:49;101711.69;;;-2.68;68.58
50702;BME280;36670;50.094;8.496;2022-12-18T13:56:18;101702.44;;;-2.87;68.85
50702;BME280;36670;50.094;8.496;2022-12-18T13:58:45;101703.34;;;-2.98;68.55
50702;BME280;36670;50.094;8.496;2022-12-18T14:01:23;101700.53;;;-2.75;68.66